• Join FlightAware (Why Join?)
  • Login
  • US Flag 
12:31PM EDT


 

Airport Tracker/Info


-or-


 

Live Flight TrackerFlight Track Log ✈ THY337 ✈ 04-Sep-2013 ✈ UBBB / GYD - LTBA / IST

Flight Track Log - Related Links

Times and Time Zones

All times are in EDT time to prevent confusion due to time zone crossing. See the THY337 flight status page for this flight to view local times or setup timezone preferences in your user account.

Time Position Orientation Groundspeed Altitude Reporting Facility
EDT Latitude Longitude Course Direction KTS MPH feet Rate Location/Type
10:19PM 40.6373 48.5079 279° West  Level Estimated
10:20PM 40.6505 48.3793 278° West  Level Estimated
10:21PM 40.6636 48.2506 278° West  Level Estimated
10:22PM 40.6765 48.1220 278° West  Level Estimated
10:23PM 40.6893 47.9932 278° West  Level Estimated
10:24PM 40.7020 47.8645 277° West  Level Estimated
10:25PM 40.7145 47.7356 277° West  Level Estimated
10:26PM 40.7269 47.6068 277° West  Level Estimated
10:27PM 40.7391 47.4778 277° West  Level Estimated
10:28PM 40.7512 47.3489 277° West  Level Estimated
10:29PM 40.7631 47.2198 277° West  Level Estimated
10:30PM 40.7749 47.0908 277° West  Level Estimated
10:31PM 40.7865 46.9617 277° West  Level Estimated
10:32PM 40.7981 46.8325 277° West  Level Estimated
10:33PM 40.8094 46.7033 277° West  Level Estimated
10:34PM 40.8206 46.5741 277° West  Level Estimated
10:35PM 40.8317 46.4448 277° West  Level Estimated
10:36PM 40.8426 46.3155 276° West  Level Estimated
10:37PM 40.8534 46.1861 276° West  Level Estimated
10:38PM 40.8641 46.0567 276° West  Level Estimated
10:39PM 40.8746 45.9272 276° West  Level Estimated
10:40PM 40.8849 45.7977 276° West  Level Estimated
10:41PM 40.8951 45.6682 276° West  Level Estimated
10:42PM 40.9052 45.5387 276° West  Level Estimated
10:42PM 41.4070 45.8070 276° West 378 435 38,000  Level FlightAware
10:42PM 41.4180 45.7110 279° West 378 435 38,000  Level FlightAware
10:43PM 41.4270 45.6300 278° West 377 434 38,000  Level FlightAware
10:43PM 41.4350 45.5530 278° West 377 434 38,000  Level FlightAware
10:44PM 41.4470 45.4500 279° West 378 435 38,000  Level FlightAware
10:45PM 41.4560 45.3670 278° West 378 435 38,000  Level FlightAware
10:45PM 41.4650 45.2780 278° West 378 435 38,000  Level FlightAware
10:46PM 41.4760 45.1780 278° West 378 435 38,000  Level FlightAware
10:47PM 41.4860 45.0790 278° West 378 435 38,000  Level FlightAware
10:47PM 41.4950 45.0010 279° West 379 436 38,000  Level FlightAware
10:48PM 41.5030 44.9180 277° West 378 435 38,000  Level FlightAware
10:49PM 41.5100 44.8480 278° West 378 435 38,000  Level FlightAware
10:49PM 41.5180 44.7680 278° West 377 434 38,000  Level FlightAware
10:50PM 41.5270 44.6830 278° West 376 433 38,000  Level FlightAware
10:50PM 41.5360 44.6000 278° West 374 430 38,000  Level FlightAware
10:51PM 41.5440 44.5200 278° West 372 428 38,000  Level FlightAware
10:52PM 41.5520 44.4380 277° West 370 426 38,000  Level FlightAware
10:52PM 41.5590 44.3620 277° West 370 426 38,000  Level FlightAware
10:53PM 41.5670 44.2810 278° West 370 426 38,000  Level FlightAware
10:53PM 41.5740 44.2120 278° West 369 425 38,000  Level FlightAware
10:54PM 41.5800 44.1290 276° West 368 423 38,000  Level FlightAware
10:54PM 41.5860 44.0490 276° West 368 423 38,000  Level FlightAware
10:55PM 41.5940 43.9430 276° West 369 425 38,000  Level FlightAware
10:56PM 41.6010 43.8550 276° West 367 422 38,000  Level FlightAware
10:56PM 41.6070 43.7740 276° West 368 423 38,000  Level FlightAware
10:57PM 41.6130 43.7000 276° West 369 425 38,000  Level FlightAware
10:58PM 41.6190 43.6210 276° West 371 427 38,000  Level FlightAware
10:58PM 41.6250 43.5420 276° West 371 427 38,000  Level FlightAware
10:59PM 41.6310 43.4580 275° West 372 428 38,000  Level FlightAware
10:59PM 41.6370 43.3730 275° West 374 430 38,000  Level FlightAware
11:00PM 41.6430 43.2910 276° West 376 433 38,000  Level FlightAware
11:01PM 41.6490 43.1970 275° West 376 433 38,000  Level FlightAware
11:01PM 41.6550 43.1220 276° West 376 433 38,000  Level FlightAware
11:02PM 41.6600 43.0460 275° West 376 433 38,000  Level FlightAware
11:02PM 41.6660 42.9540 275° West 375 432 38,000  Level FlightAware
11:03PM 41.6710 42.8770 275° West 375 432 38,000  Level FlightAware
11:04PM 41.6760 42.8060 275° West 375 432 38,000  Level FlightAware
11:04PM 41.6800 42.7350 274° West 375 432 38,000  Level FlightAware
11:05PM 41.6850 42.6640 275° West 375 432 38,000  Level FlightAware
11:05PM 41.6900 42.5930 275° West 375 432 38,000  Level FlightAware
11:06PM 41.6940 42.5210 274° West 375 432 38,000  Level FlightAware
11:07PM 41.6990 42.4500 275° West 375 432 38,000  Level FlightAware
11:07PM 41.7040 42.3790 275° West 375 432 38,000  Level FlightAware
11:08PM 41.7080 42.3060 274° West 375 432 38,000  Level FlightAware
11:08PM 41.7130 42.2350 275° West 375 432 38,000  Level FlightAware
11:09PM 41.7180 42.1640 275° West 375 432 38,000  Level FlightAware
11:10PM 41.7300 41.9430 274° West 364 419 38,000  Level FlightAware
11:10PM 41.7340 41.8820 275° West 364 419 38,000  Level FlightAware
11:11PM 41.7400 41.8000 276° West 364 419 38,000  Level FlightAware
11:12PM 41.7440 41.7300 274° West 364 419 38,000  Level FlightAware
11:12PM 41.7490 41.6590 275° West 364 419 38,000  Level FlightAware
11:13PM 41.7530 41.5900 274° West 364 419 38,000  Level FlightAware
11:14PM 41.7580 41.5190 275° West 364 419 38,000  Level FlightAware
11:14PM 41.7620 41.4510 275° West 364 419 38,000  Level FlightAware
11:15PM 41.7670 41.3820 276° West 364 419 38,000  Level FlightAware
11:15PM 41.7710 41.3130 274° West 364 419 38,000  Level FlightAware
11:16PM 41.7760 41.2440 276° West 364 419 38,000  Level FlightAware
11:17PM 41.7800 41.1750 274° West 364 419 38,000  Level FlightAware
11:17PM 41.7850 41.1060 276° West 364 419 38,000  Level FlightAware
11:18PM 41.7890 40.8760 271° West 369 425 38,000  Level FlightAware
11:18PM 41.7930 40.7850 273° West 369 425 38,000  Level FlightAware
11:19PM 41.7960 40.7150 273° West 369 425 38,000  Level FlightAware
11:20PM 41.7990 40.6450 273° West 369 425 38,000  Level FlightAware
11:20PM 41.8060 40.4910 274° West 373 429 38,000  Level FlightAware
11:21PM 41.8090 40.4180 273° West 374 430 38,000  Level FlightAware
11:22PM 41.8130 40.3370 274° West 373 429 38,000  Level FlightAware
11:22PM 41.8160 40.2590 273° West 373 429 38,000  Level FlightAware
11:23PM 41.8200 40.1710 274° West 370 426 38,000  Level FlightAware
11:24PM 41.8240 40.0790 273° West 367 422 38,000  Level FlightAware
11:24PM 41.8270 39.9950 273° West 365 420 38,000  Level FlightAware
11:25PM 41.8300 39.9150 273° West 366 421 38,000  Level FlightAware
11:25PM 41.8330 39.8240 273° West 367 422 38,000  Level FlightAware
11:26PM 41.8380 39.7130 273° West 368 423 38,000  Level FlightAware
11:27PM 41.8400 39.6380 272° West 368 423 38,000  Level FlightAware
11:27PM 41.8420 39.5740 272° West 368 423 38,000  Level FlightAware
11:28PM 41.8460 39.4730 273° West 368 423 38,000  Level FlightAware
11:29PM 41.8490 39.3820 273° West 366 421 38,000  Level FlightAware
11:29PM 41.8510 39.3280 273° West 365 420 38,000  Level FlightAware
11:30PM 41.8540 39.2320 272° West 364 419 38,000  Level FlightAware
11:30PM 41.8560 39.1660 272° West 365 420 38,000  Level FlightAware
11:31PM 41.8600 39.0550 273° West 365 420 38,000  Level FlightAware
11:32PM 41.8620 38.9760 272° West 364 419 38,000  Level FlightAware
11:32PM 41.8650 38.8760 272° West 360 414 38,000  Level FlightAware
11:33PM 41.8680 38.7470 272° West 357 411 38,000  Level FlightAware
11:34PM 41.8710 38.6600 273° West 353 406 38,000  Level FlightAware
11:35PM 41.8730 38.5950 272° West 353 406 38,000  Level FlightAware
11:35PM 41.8760 38.4740 272° West 589 678 38,000  Level FlightAware
11:36PM 41.8780 38.3760 272° West 355 409 38,000  Level FlightAware
11:37PM 41.8800 38.2990 272° West 356 410 38,000  Level FlightAware
11:38PM 41.8830 38.1970 272° West 357 411 38,000  Level FlightAware
11:38PM 41.8840 38.1320 271° West 357 411 38,000  Level FlightAware
11:39PM 41.8850 38.0620 271° West 357 411 38,000  Level FlightAware
11:39PM 41.8880 37.9730 273° West 360 414 38,000  Level FlightAware
11:40PM 41.8890 37.9000 271° West 361 415 38,000  Level FlightAware
11:41PM 41.8900 37.8240 271° West 361 415 38,000  Level FlightAware
11:41PM 41.8930 37.7200 272° West 366 421 38,000  Level FlightAware
11:42PM 41.8940 37.6450 271° West 366 421 38,000  Level FlightAware
11:42PM 41.8960 37.5540 272° West 365 420 38,000  Level FlightAware
11:43PM 41.8970 37.4780 271° West 364 419 38,000  Level FlightAware
11:44PM 41.8980 37.4080 271° West 364 419 38,000  Level FlightAware
11:44PM 41.9000 37.3020 271° West 364 419 38,000  Level FlightAware
11:45PM 41.9020 37.1880 271° West 363 418 38,000  Level FlightAware
11:46PM 41.9030 37.1190 271° West 363 418 38,000  Level FlightAware
11:47PM 41.9040 36.9990 271° West 361 415 38,000  Level FlightAware
11:47PM 41.9050 36.9260 271° West 361 415 38,000  Level FlightAware
11:48PM 41.9070 36.8270 272° West 583 671 38,000  Level FlightAware
11:50PM 41.8880 36.5925 264° West  Level Estimated
11:51PM 41.8771 36.4611 264° West  Level Estimated
11:52PM 41.8661 36.3297 264° West  Level Estimated
11:53PM 41.8549 36.1984 264° West  Level Estimated
11:54PM 41.8436 36.0671 263° West  Level Estimated
11:55PM 41.8321 35.9358 263° West  Level Estimated
11:56PM 41.8204 35.8046 263° West  Level Estimated
11:57PM 41.8087 35.6735 263° West  Level Estimated
11:58PM 41.7967 35.5424 263° West  Level Estimated
11:59PM 41.7847 35.4113 263° West  Level Estimated
12:00AM 41.7724 35.2803 263° West  Level Estimated
12:01AM 41.7601 35.1494 263° West  Level Estimated
12:02AM 41.7476 35.0185 263° West  Level Estimated
12:03AM 41.7349 34.8876 263° West  Level Estimated
12:03AM 41.7790 34.7110 263° West 383 441 38,000  Level FlightAware
12:04AM 41.7221 34.7568 263° West  Level Estimated
12:04AM 41.7730 34.6270 265° West 382 440 38,000  Level FlightAware
12:05AM 41.7670 34.5540 264° West 379 436 38,000  Level FlightAware
12:05AM 41.7620 34.4780 265° West 378 435 38,000  Level FlightAware
12:06AM 41.7550 34.3820 264° West 381 438 38,000  Level FlightAware
12:06AM 41.7490 34.3000 264° West 383 441 38,000  Level FlightAware
12:07AM 41.7440 34.2270 265° West 382 440 38,000  Level FlightAware
12:07AM 41.7370 34.1440 264° West 384 442 38,000  Level FlightAware
12:08AM 41.7300 34.0480 264° West 388 447 38,000  Level FlightAware
12:09AM 41.7250 33.9770 265° West 386 444 38,000  Level FlightAware
12:09AM 41.7170 33.8830 264° West 386 444 38,000  Level FlightAware
12:10AM 41.7110 33.8000 264° West 386 444 38,000  Level FlightAware
12:10AM 41.7050 33.7280 264° West 385 443 38,000  Level FlightAware
12:11AM 41.6980 33.6370 264° West 383 441 38,000  Level FlightAware
12:12AM 41.6920 33.5580 264° West 383 441 38,000  Level FlightAware
12:12AM 41.6860 33.4830 264° West 382 440 38,000  Level FlightAware
12:13AM 41.6780 33.3880 264° West 382 440 38,000  Level FlightAware
12:13AM 41.6720 33.3080 264° West 381 438 38,000  Level FlightAware
12:14AM 41.6660 33.2400 263° West 379 436 38,000  Level FlightAware
12:15AM 41.6580 33.1450 264° West 381 438 38,000  Level FlightAware
12:15AM 41.6520 33.0730 264° West 381 438 38,000  Level FlightAware
12:16AM 41.6450 32.9920 263° West 383 441 38,000  Level FlightAware
12:16AM 41.6380 32.9090 264° West 383 441 38,000  Level FlightAware
12:17AM 41.6300 32.8150 264° West 382 440 38,000  Level FlightAware
12:17AM 41.6230 32.7370 263° West 380 437 38,000  Level FlightAware
12:18AM 41.6150 32.6480 263° West 382 440 38,000  Level FlightAware
12:19AM 41.6100 32.5870 264° West 384 442 38,000  Level FlightAware
12:19AM 41.6010 32.4880 263° West 386 444 38,000  Level FlightAware
12:20AM 41.5930 32.3940 264° West 379 436 38,000  Level FlightAware
12:20AM 41.5870 32.3280 263° West 379 436 38,000  Level FlightAware
12:21AM 41.5780 32.2320 263° West 379 436 38,000  Level FlightAware
12:22AM 41.5700 32.1530 262° West 380 437 38,000  Level FlightAware
12:22AM 41.5640 32.0900 263° West 381 438 38,000  Level FlightAware
12:23AM 41.5520 31.9620 263° West 381 438 38,000  Level FlightAware
12:24AM 41.5460 31.8890 264° West 380 437 38,000  Level FlightAware
12:24AM 41.5360 31.7910 262° West 377 434 38,000  Level FlightAware
12:25AM 41.5300 31.7220 263° West 376 433 38,000  Level FlightAware
12:25AM 41.5260 31.6810 263° West 376 433 38,000  Level FlightAware
12:26AM 41.5120 31.5360 263° West 377 434 38,000  Level FlightAware
12:27AM 41.5030 31.4550 262° West 379 436 38,000  Level FlightAware
12:27AM 41.4960 31.3750 263° West 376 433 38,000  Level FlightAware
12:28AM 41.4860 31.2770 262° West 378 435 38,000  Level FlightAware
12:29AM 41.4770 31.1870 262° West 379 436 38,000  Level FlightAware
12:29AM 41.4670 31.0900 262° West 358 412 38,000  Level FlightAware
12:30AM 41.4570 30.9960 262° West 380 437 38,000 -480 Level FlightAware
12:31AM 41.4480 30.9130 262° West 382 440 37,400 -960 Descending FlightAware
12:31AM 41.4400 30.8340 262° West 385 443 36,900 -1,020 Descending FlightAware
12:32AM 41.4320 30.7520 263° West 389 448 36,300 -780 Descending FlightAware
12:32AM 41.4190 30.6670 258° West 377 434 36,000 -300 Descending FlightAware
12:33AM 41.4060 30.5960 256° West 360 414 36,000  Level FlightAware
12:33AM 41.3920 30.5190 256° West 347 399 36,000 -1,260 Level FlightAware
12:34AM 41.3790 30.4410 258° West 351 404 34,500 -2,160 Descending FlightAware
12:35AM 41.3670 30.3770 256° West 342 394 33,600 -1,800 Descending FlightAware
12:35AM 41.3540 30.3050 256° West 333 383 32,500 -1,800 Descending FlightAware
12:36AM 41.3420 30.2370 257° West 327 376 31,500 -1,860 Descending FlightAware
12:36AM 41.3300 30.1710 256° West 319 367 30,400 -2,040 Descending FlightAware
12:37AM 41.3170 30.1010 256° West 317 365 29,100 -1,680 Descending FlightAware
12:38AM 41.3040 30.0310 256° West 321 369 28,300 -960 Descending FlightAware
12:38AM 41.2810 29.9750 241° Southwest 322 371 28,000 -300 Descending FlightAware
12:39AM 41.2470 29.9240 228° Southwest 322 371 28,000  Level FlightAware
12:39AM 41.2100 29.8690 228° Southwest 323 372 28,000 -840 Level FlightAware
12:40AM 41.1770 29.8200 228° Southwest 330 380 27,100 -2,040 Descending FlightAware
12:40AM 41.1390 29.7650 227° Southwest 334 384 25,700 -2,100 Descending FlightAware
12:41AM 41.1030 29.7120 228° Southwest 327 376 24,600 -1,440 Descending FlightAware
12:42AM 41.0660 29.6590 227° Southwest 310 357 24,000 -660 Descending FlightAware
12:42AM 41.0500 29.6300 234° Southwest 300 345 24,000  Level FlightAware
12:42AM 41.0420 29.5960 253° West 294 338 24,000  Level FlightAware
12:43AM 41.0350 29.5310 262° West 291 335 24,000  Level FlightAware
12:43AM 41.0280 29.4720 261° West 292 336 24,000  Level FlightAware
12:44AM 41.0210 29.4080 262° West 294 338 24,000  Level FlightAware
12:45AM 41.0140 29.3470 261° West 293 337 24,000  Level FlightAware
12:45AM 41.0060 29.2810 261° West 294 338 24,000  Level FlightAware
12:46AM 41.0000 29.2260 262° West 295 339 24,000 -1,020 Level FlightAware
12:46AM 40.9920 29.1640 260° West 309 356 22,900 -2,700 Descending FlightAware
12:47AM 40.9780 29.0900 256° West 334 384 20,800 -3,000 Descending FlightAware
12:48AM 40.9510 29.0300 239° Southwest 334 384 19,300 -2,640 Descending FlightAware
12:48AM 40.9250 28.9740 238° Southwest 332 382 17,900 -2,520 Descending FlightAware
12:49AM 40.8940 28.9090 238° Southwest 328 377 16,400 -2,460 Descending FlightAware
12:49AM 40.8680 28.8530 238° Southwest 323 372 15,000 -2,460 Descending FlightAware
12:50AM 40.8400 28.7910 239° Southwest 316 364 13,500 -2,520 Descending FlightAware
12:50AM 40.8150 28.7380 238° Southwest 311 358 12,100 -2,520 Descending FlightAware
12:51AM 40.7890 28.6810 239° Southwest 308 354 10,700 -2,160 Descending FlightAware
12:51AM 40.7680 28.6390 237° Southwest 295 339 9,900 -1,800 Descending FlightAware
12:52AM 40.7540 28.6090 238° Southwest 290 334 9,300 -1,740 Descending FlightAware
12:52AM 40.7370 28.5720 239° Southwest 281 323 8,600 -1,620 Descending FlightAware
12:53AM 40.7230 28.5420 238° Southwest 275 316 8,100 -1,620 Descending FlightAware
12:53AM 40.7120 28.5180 239° Southwest 270 311 7,600 -1,380 Descending FlightAware
12:53AM 40.6980 28.4870 239° Southwest 265 305 7,200 -1,200 Descending FlightAware
12:54AM 40.6810 28.4520 237° Southwest 257 296 6,700 -1,140 Descending FlightAware
12:54AM 40.6700 28.4290 238° Southwest 253 291 6,400 -900 Descending FlightAware
12:54AM 40.6620 28.3990 251° West 242 278 6,100 -840 Descending FlightAware
12:55AM 40.6700 28.3720 291° West 219 252 5,800 -660 Descending FlightAware
12:55AM 40.6760 28.3670 328° Northwest 215 247 5,800 -420 Level FlightAware
12:55AM 40.6840 28.3640 344° North 213 245 5,700 -1,140 Descending FlightAware
12:55AM 40.6860 28.3640 360° North 213 245 5,600 -900 Descending FlightAware
12:55AM 40.7090 28.3790 26° Northeast 219 252 5,300 -660 Descending FlightAware
12:56AM 40.7160 28.3870 41° Northeast 218 251 5,200 -780 Descending FlightAware
12:56AM 40.7330 28.4040 37° Northeast 216 249 4,900 -720 Descending FlightAware
12:56AM 40.7450 28.4170 39° Northeast 217 250 4,800 -720 Descending FlightAware
12:57AM 40.7620 28.4350 39° Northeast 217 250 4,500 -600 Descending FlightAware
12:57AM 40.7770 28.4500 37° Northeast 217 250 4,400 -300 Descending FlightAware
12:57AM 40.7960 28.4700 39° Northeast 219 252 4,300 -420 Descending FlightAware
12:58AM 40.8130 28.4890 40° Northeast 220 253 4,100 -420 Descending FlightAware
12:58AM 40.8250 28.5100 53° Northeast 217 250 4,000 -300 Descending FlightAware
12:58AM 40.8360 28.5320 57° Northeast 218 251 3,900 -480 Descending FlightAware
12:59AM 40.8480 28.5560 57° Northeast 218 251 3,700 -420 Descending FlightAware
12:59AM 40.8600 28.5830 60° Northeast 217 250 3,600 -300 Descending FlightAware
12:59AM 40.8700 28.6050 59° Northeast 215 247 3,500 -780 Descending FlightAware
01:00AM 40.8820 28.6290 57° Northeast 214 246 3,100 -1,080 Descending FlightAware
01:00AM 40.8910 28.6490 59° Northeast 210 242 2,800 -1,080 Descending FlightAware
01:00AM 40.9020 28.6730 59° Northeast 201 231 2,400 -1,200 Descending FlightAware
01:01AM 40.9110 28.6930 59° Northeast 183 211 2,000 -1,020 Descending FlightAware
01:01AM 40.9180 28.7080 58° Northeast 173 199 1,800 -840 Descending FlightAware
01:01AM 40.9260 28.7250 58° Northeast 159 183 1,500 -900 Descending FlightAware
01:02AM 40.9340 28.7420 58° Northeast 144 166 1,200 -780 Descending FlightAware
01:02AM 40.9410 28.7570 58° Northeast 141 162 1,000 -720 Descending FlightAware
01:02AM 40.9490 28.7750 60° Northeast 143 165 700 -840 Descending FlightAware
01:03AM 40.9560 28.7900 58° Northeast 145 167 400 -840 Descending FlightAware
01:03AM 40.9620 28.8020 56° Northeast 151 174 200 -720 Descending FlightAware
01:03AM 40.9690 28.8170 58° Northeast 148 170 -660 Descending FlightAware
01:04AM 40.9770 28.8350 60° Northeast 148 170  Level FlightAware